Sault Ste Marie Airport
CYAM : rendu visible

Aérodrome :











RETROUVEZ-NOUS SUR...

 
LOGIN :

S'inscrire | Disclaimer

   EN    FR    IT 

 









Légende :    VFR   VFR Marginal   IFR   IFR Intensif   IFR Très Intensif
Visi : 
Plafond : 
>= 8 km
>= 3000ft
5 à 8 km
1000 à 3000 ft
1500m à 5 km
500 à 1000 ft
800 à 1500m
200 à 500 ft
< 800m
< 200 ft
Symboles :   Orages  Brouillard  Fortes neiges  Fortes précipitations  Vent > 20 kt






- Altitude de l'aérodrome : 630 ft
- Code IATA : YAM


CYAM - Sault Ste Marie

DERNIER METAR :
  • 191217Z 09004KT 2 1/2SM -DZ BR BKN005 OVC006 02/01 A2973 RMK FG1SF4ST3 SLP078

METARs EXPIRÉS :
  • 191200Z 08003KT 2 1/2SM -DZ BR SCT005 OVC006 02/01 A2973 RMK FG1SF3ST4 SLP076
  • 191112Z 08004KT 2 1/2SM -DZ BR SCT004 BKN007 OVC009 02/01 A2972 RMK FG1SF2ST3ST2 SLP075
  • 191000Z 10003KT 2 1/2SM BR SCT005 BKN009 OVC011 02/01 A2971 RMK FG1SF3ST3CU1 SLP072
  • 190949Z 09004KT 2 1/4SM BR SCT005 BKN009 OVC012 02/01 A2971 RMK FG1SF3ST3CU1 SLP072

TAF TAF CYAM
Valide du 19 à 08h jusqu'au 19 à 20h UTC


190738Z 1908/1920 VRB03KT P6SM OVC025
TEMPO 1908/1910 5SM -DZ BR OVC020
FM191000 11008KT P6SM OVC012
TEMPO 1910/1920 2SM -DZ BR OVC008
PROB30 1910/1916 3/4SM -DZ BR OVC004 RMK NXT FCST BY 191400Z



MET'MAP, la Météo Aéronautique d'un coup d'oeil ! - Copyright ORBIFLY Décembre 2007 - Disclaimer

ORBIFLY MET'MAP TEAM :

Programmation & Développement : Alexandra Zaïnal
Conception & Développement : Baudouin d'Aumeries
Co-Programmation & Développement : Marc-Olivier Méhu
Soutien technique & logistique : Manuel Goepfert

Contact : metmap@orbifly.com




SOURCES & CREDITS :

   NOAA       Earth
Advisory